sensor_id;sensor_type;location;lat;lon;timestamp;pressure;altitude;pressure_sealevel;temperature;humidity
71384;BME280;67558;52.166;5.004;2023-03-01T00:02:06;103327.38;;;2.49;64.04
71384;BME280;67558;52.166;5.004;2023-03-01T00:04:31;103325.88;;;2.46;63.55
71384;BME280;67558;52.166;5.004;2023-03-01T00:06:57;103314.91;;;2.41;64.15
71384;BME280;67558;52.166;5.004;2023-03-01T00:09:22;103329.66;;;2.43;64.30
71384;BME280;67558;52.166;5.004;2023-03-01T00:11:48;103330.09;;;2.39;64.19
71384;BME280;67558;52.166;5.004;2023-03-01T00:14:13;103316.50;;;2.34;64.50
71384;BME280;67558;52.166;5.004;2023-03-01T00:16:42;103320.72;;;2.27;64.44
71384;BME280;67558;52.166;5.004;2023-03-01T00:19:14;103333.47;;;2.31;64.41
71384;BME280;67558;52.166;5.004;2023-03-01T00:21:40;103329.59;;;2.25;64.29
71384;BME280;67558;52.166;5.004;2023-03-01T00:24:07;103322.03;;;2.13;64.34
71384;BME280;67558;52.166;5.004;2023-03-01T00:26:32;103325.34;;;2.15;64.15
71384;BME280;67558;52.166;5.004;2023-03-01T00:28:58;103275.94;;;1.79;64.48
71384;BME280;67558;52.166;5.004;2023-03-01T00:31:27;103325.34;;;2.15;63.80
71384;BME280;67558;52.166;5.004;2023-03-01T00:33:58;103322.34;;;2.10;63.83
71384;BME280;67558;52.166;5.004;2023-03-01T00:36:25;103311.28;;;1.96;64.02
71384;BME280;67558;52.166;5.004;2023-03-01T00:38:51;103312.66;;;2.00;64.36
71384;BME280;67558;52.166;5.004;2023-03-01T00:41:18;103324.06;;;2.01;64.87
71384;BME280;67558;52.166;5.004;2023-03-01T00:43:45;103319.72;;;2.00;64.03
71384;BME280;67558;52.166;5.004;2023-03-01T00:46:13;103312.84;;;1.89;64.29
71384;BME280;67558;52.166;5.004;2023-03-01T00:48:39;103314.78;;;1.87;64.36
71384;BME280;67558;52.166;5.004;2023-03-01T00:53:31;103325.50;;;1.86;64.75
71384;BME280;67558;52.166;5.004;2023-03-01T00:55:57;103322.56;;;1.89;64.37
71384;BME280;67558;52.166;5.004;2023-03-01T00:58:23;103318.13;;;1.89;64.63
71384;BME280;67558;52.166;5.004;2023-03-01T01:00:48;103323.13;;;1.92;64.38
71384;BME280;67558;52.166;5.004;2023-03-01T01:03:14;103317.53;;;1.95;64.13
71384;BME280;67558;52.166;5.004;2023-03-01T01:05:39;103310.16;;;1.99;64.33
71384;BME280;67558;52.166;5.004;2023-03-01T01:08:04;103313.50;;;2.01;64.43
71384;BME280;67558;52.166;5.004;2023-03-01T01:10:30;103316.00;;;2.02;64.06
71384;BME280;67558;52.166;5.004;2023-03-01T01:12:56;103317.25;;;1.98;64.39
71384;BME280;67558;52.166;5.004;2023-03-01T01:15:21;103313.38;;;1.93;64.17
71384;BME280;67558;52.166;5.004;2023-03-01T01:17:46;103308.25;;;1.91;64.08
71384;BME280;67558;52.166;5.004;2023-03-01T01:20:12;103305.22;;;1.86;64.16
71384;BME280;67558;52.166;5.004;2023-03-01T01:22:37;103299.38;;;1.82;63.57
71384;BME280;67558;52.166;5.004;2023-03-01T01:25:03;103299.97;;;1.76;64.40
71384;BME280;67558;52.166;5.004;2023-03-01T01:27:29;103293.47;;;1.71;64.10
71384;BME280;67558;52.166;5.004;2023-03-01T01:29:55;103282.38;;;1.67;64.13
71384;BME280;67558;52.166;5.004;2023-03-01T01:32:20;103280.63;;;1.58;64.62
71384;BME280;67558;52.166;5.004;2023-03-01T01:34:45;103263.72;;;1.41;64.63
71384;BME280;67558;52.166;5.004;2023-03-01T01:37:11;103275.81;;;1.43;64.16
71384;BME280;67558;52.166;5.004;2023-03-01T01:39:37;103254.63;;;1.26;64.10
71384;BME280;67558;52.166;5.004;2023-03-01T01:42:03;103278.31;;;1.35;64.97
71384;BME280;67558;52.166;5.004;2023-03-01T01:44:29;103278.31;;;1.35;64.31
71384;BME280;67558;52.166;5.004;2023-03-01T01:47:05;103270.56;;;1.34;64.42
71384;BME280;67558;52.166;5.004;2023-03-01T01:49:51;103275.41;;;1.29;65.02
71384;BME280;67558;52.166;5.004;2023-03-01T01:52:31;103277.81;;;1.22;64.58
71384;BME280;67558;52.166;5.004;2023-03-01T01:55:05;103278.09;;;1.19;64.98
71384;BME280;67558;52.166;5.004;2023-03-01T01:57:37;103282.53;;;1.18;64.63
71384;BME280;67558;52.166;5.004;2023-03-01T02:00:10;103272.28;;;1.15;65.19
71384;BME280;67558;52.166;5.004;2023-03-01T02:02:37;103259.66;;;1.09;64.59
71384;BME280;67558;52.166;5.004;2023-03-01T02:05:12;103278.66;;;1.13;65.35
71384;BME280;67558;52.166;5.004;2023-03-01T02:07:40;103266.03;;;1.07;64.95
71384;BME280;67558;52.166;5.004;2023-03-01T02:10:08;103262.59;;;1.06;64.96
71384;BME280;67558;52.166;5.004;2023-03-01T02:12:34;103266.03;;;1.07;64.47
71384;BME280;67558;52.166;5.004;2023-03-01T02:15:00;103257.31;;;1.06;65.58
71384;BME280;67558;52.166;5.004;2023-03-01T02:17:26;103254.25;;;1.01;65.09
71384;BME280;67558;52.166;5.004;2023-03-01T02:22:40;103258.31;;;0.95;65.25
71384;BME280;67558;52.166;5.004;2023-03-01T02:30:38;103261.88;;;0.94;64.75
71384;BME280;67558;52.166;5.004;2023-03-01T02:33:25;103261.88;;;0.94;64.93
71384;BME280;67558;52.166;5.004;2023-03-01T02:35:53;103259.97;;;0.87;65.04
71384;BME280;67558;52.166;5.004;2023-03-01T02:38:20;103258.84;;;0.89;65.13
71384;BME280;67558;52.166;5.004;2023-03-01T02:40:46;103251.66;;;0.91;65.13
71384;BME280;67558;52.166;5.004;2023-03-01T02:43:12;103259.69;;;0.90;65.11
71384;BME280;67558;52.166;5.004;2023-03-01T02:45:47;103239.44;;;0.80;65.33
71384;BME280;67558;52.166;5.004;2023-03-01T02:48:13;103239.16;;;0.84;65.75
71384;BME280;67558;52.166;5.004;2023-03-01T02:51:10;103228.34;;;0.77;66.16
71384;BME280;67558;52.166;5.004;2023-03-01T02:53:55;103229.88;;;0.79;64.65
71384;BME280;67558;52.166;5.004;2023-03-01T02:56:21;103226.53;;;0.77;66.19
71384;BME280;67558;52.166;5.004;2023-03-01T02:58:47;103221.28;;;0.77;65.27
71384;BME280;67558;52.166;5.004;2023-03-01T03:01:16;103226.53;;;0.77;65.31
71384;BME280;67558;52.166;5.004;2023-03-01T03:03:42;103224.06;;;0.76;65.30
71384;BME280;67558;52.166;5.004;2023-03-01T03:06:07;103230.28;;;0.75;65.80
71384;BME280;67558;52.166;5.004;2023-03-01T03:08:33;103222.00;;;0.70;65.20
71384;BME280;67558;52.166;5.004;2023-03-01T03:10:58;103222.81;;;0.70;65.76
71384;BME280;67558;52.166;5.004;2023-03-01T03:13:24;103212.56;;;0.67;65.66
71384;BME280;67558;52.166;5.004;2023-03-01T03:15:54;103216.44;;;0.63;65.54
71384;BME280;67558;52.166;5.004;2023-03-01T03:18:19;103222.25;;;0.67;65.64
71384;BME280;67558;52.166;5.004;2023-03-01T03:20:45;103220.47;;;0.67;66.13
71384;BME280;67558;52.166;5.004;2023-03-01T03:23:11;103209.78;;;0.69;66.05
71384;BME280;67558;52.166;5.004;2023-03-01T03:25:36;103209.50;;;0.62;65.76
71384;BME280;67558;52.166;5.004;2023-03-01T03:28:03;103224.63;;;0.70;65.71
71384;BME280;67558;52.166;5.004;2023-03-01T03:30:36;103220.88;;;0.72;65.58
71384;BME280;67558;52.166;5.004;2023-03-01T03:33:04;103209.09;;;0.67;65.06
71384;BME280;67558;52.166;5.004;2023-03-01T03:35:32;103184.84;;;0.53;65.26
71384;BME280;67558;52.166;5.004;2023-03-01T03:37:59;103202.59;;;0.61;65.41
71384;BME280;67558;52.166;5.004;2023-03-01T03:40:30;103200.09;;;0.59;65.55
71384;BME280;67558;52.166;5.004;2023-03-01T03:42:56;103198.88;;;0.54;65.13
71384;BME280;67558;52.166;5.004;2023-03-01T03:45:21;103199.53;;;0.46;65.53
71384;BME280;67558;52.166;5.004;2023-03-01T03:47:47;103194.00;;;0.39;65.69
71384;BME280;67558;52.166;5.004;2023-03-01T03:50:14;103190.38;;;0.40;65.66
71384;BME280;67558;52.166;5.004;2023-03-01T03:52:40;103205.50;;;0.38;65.48
71384;BME280;67558;52.166;5.004;2023-03-01T03:55:07;103196.63;;;0.39;64.90
71384;BME280;67558;52.166;5.004;2023-03-01T03:57:39;103200.91;;;0.40;65.77
71384;BME280;67558;52.166;5.004;2023-03-01T04:00:07;103196.50;;;0.41;65.54
71384;BME280;67558;52.166;5.004;2023-03-01T04:02:41;103192.50;;;0.37;65.52
71384;BME280;67558;52.166;5.004;2023-03-01T04:05:09;103196.91;;;0.36;65.41
71384;BME280;67558;52.166;5.004;2023-03-01T04:07:36;103193.44;;;0.36;65.62
71384;BME280;67558;52.166;5.004;2023-03-01T04:10:04;103190.69;;;0.37;65.37
71384;BME280;67558;52.166;5.004;2023-03-01T04:12:29;103199.00;;;0.33;65.18
71384;BME280;67558;52.166;5.004;2023-03-01T04:14:54;103197.59;;;0.29;65.31
71384;BME280;67558;52.166;5.004;2023-03-01T04:17:20;103200.66;;;0.24;65.57
71384;BME280;67558;52.166;5.004;2023-03-01T04:19:45;103198.97;;;0.23;65.86
71384;BME280;67558;52.166;5.004;2023-03-01T04:22:14;103193.72;;;0.23;65.60
71384;BME280;67558;52.166;5.004;2023-03-01T04:24:42;103193.72;;;0.23;65.93
71384;BME280;67558;52.166;5.004;2023-03-01T04:27:08;103188.03;;;0.18;65.95
71384;BME280;67558;52.166;5.004;2023-03-01T04:29:34;103184.44;;;0.09;65.82
71384;BME280;67558;52.166;5.004;2023-03-01T04:31:59;103178.03;;;0.02;65.88
71384;BME280;67558;52.166;5.004;2023-03-01T04:34:24;103195.78;;;0.10;65.50
71384;BME280;67558;52.166;5.004;2023-03-01T04:36:52;103181.78;;;-0.01;65.74
71384;BME280;67558;52.166;5.004;2023-03-01T04:39:17;103191.34;;;0.01;66.31
71384;BME280;67558;52.166;5.004;2023-03-01T04:41:43;103188.16;;;-0.03;65.91
71384;BME280;67558;52.166;5.004;2023-03-01T04:44:09;103185.13;;;0.02;65.89
71384;BME280;67558;52.166;5.004;2023-03-01T04:46:35;103189.00;;;0.07;66.00
71384;BME280;67558;52.166;5.004;2023-03-01T04:49:00;103179.72;;;0.03;65.67
71384;BME280;67558;52.166;5.004;2023-03-01T04:51:26;103178.03;;;0.02;65.70
71384;BME280;67558;52.166;5.004;2023-03-01T04:53:51;103182.47;;;0.02;65.29
71384;BME280;67558;52.166;5.004;2023-03-01T04:56:16;103116.41;;;-0.34;65.68
71384;BME280;67558;52.166;5.004;2023-03-01T04:58:45;103179.44;;;0.06;65.92
71384;BME280;67558;52.166;5.004;2023-03-01T05:01:12;103179.44;;;0.06;65.98
71384;BME280;67558;52.166;5.004;2023-03-01T05:03:44;103171.81;;;0.03;66.16
71384;BME280;67558;52.166;5.004;2023-03-01T05:06:10;103152.56;;;-0.07;66.45
71384;BME280;67558;52.166;5.004;2023-03-01T05:08:38;103164.22;;;0.10;66.32
71384;BME280;67558;52.166;5.004;2023-03-01T05:11:03;103154.66;;;0.09;66.03
71384;BME280;67558;52.166;5.004;2023-03-01T05:13:29;103161.28;;;0.13;66.31
71384;BME280;67558;52.166;5.004;2023-03-01T05:15:57;103156.19;;;0.11;66.27
71384;BME280;67558;52.166;5.004;2023-03-01T05:18:28;103154.66;;;0.09;65.92
71384;BME280;67558;52.166;5.004;2023-03-01T05:20:55;103155.50;;;0.09;66.54
71384;BME280;67558;52.166;5.004;2023-03-01T05:23:24;103152.28;;;0.06;65.76
71384;BME280;67558;52.166;5.004;2023-03-01T05:25:49;103151.59;;;0.04;65.60
71384;BME280;67558;52.166;5.004;2023-03-01T05:28:18;103149.25;;;0.01;65.94
71384;BME280;67558;52.166;5.004;2023-03-01T05:30:45;103126.66;;;-0.12;66.33
71384;BME280;67558;52.166;5.004;2023-03-01T05:33:10;103133.59;;;-0.01;66.33
71384;BME280;67558;52.166;5.004;2023-03-01T05:35:40;103133.88;;;-0.04;66.26
71384;BME280;67558;52.166;5.004;2023-03-01T05:38:06;103123.63;;;-0.07;66.26
71384;BME280;67558;52.166;5.004;2023-03-01T05:40:33;103131.50;;;-0.07;66.02
71384;BME280;67558;52.166;5.004;2023-03-01T05:42:58;103121.41;;;-0.12;66.42
71384;BME280;67558;52.166;5.004;2023-03-01T05:45:25;103119.31;;;-0.18;66.51
71384;BME280;67558;52.166;5.004;2023-03-01T05:47:51;103115.03;;;-0.19;65.96
71384;BME280;67558;52.166;5.004;2023-03-01T05:50:25;103114.06;;;-0.18;66.13
71384;BME280;67558;52.166;5.004;2023-03-01T05:53:00;103114.34;;;-0.21;66.22
71384;BME280;67558;52.166;5.004;2023-03-01T05:55:26;103102.13;;;-0.22;66.01
71384;BME280;67558;52.166;5.004;2023-03-01T05:57:52;103101.44;;;-0.24;65.88
71384;BME280;67558;52.166;5.004;2023-03-01T06:00:19;103111.72;;;-0.21;66.18
71384;BME280;67558;52.166;5.004;2023-03-01T06:02:47;103100.91;;;-0.28;66.44
71384;BME280;67558;52.166;5.004;2023-03-01T06:05:13;103102.41;;;-0.25;66.30
71384;BME280;67558;52.166;5.004;2023-03-01T06:07:39;103102.28;;;-0.24;66.36
71384;BME280;67558;52.166;5.004;2023-03-01T06:10:06;103088.56;;;-0.27;66.67
71384;BME280;67558;52.166;5.004;2023-03-01T06:12:32;103120.28;;;-0.09;66.47
71384;BME280;67558;52.166;5.004;2023-03-01T06:14:58;103116.84;;;-0.10;66.47
71384;BME280;67558;52.166;5.004;2023-03-01T06:17:24;103112.25;;;-0.08;66.21
71384;BME280;67558;52.166;5.004;2023-03-01T06:19:49;103116.28;;;-0.04;66.02
71384;BME280;67558;52.166;5.004;2023-03-01T06:22:14;103104.94;;;-0.04;66.61
71384;BME280;67558;52.166;5.004;2023-03-01T06:24:40;103109.75;;;-0.09;65.82
71384;BME280;67558;52.166;5.004;2023-03-01T06:27:05;103118.09;;;-0.04;66.39
71384;BME280;67558;52.166;5.004;2023-03-01T06:29:31;103122.50;;;-0.05;66.14
71384;BME280;67558;52.166;5.004;2023-03-01T06:31:56;103125.13;;;-0.05;66.51
71384;BME280;67558;52.166;5.004;2023-03-01T06:34:21;103125.13;;;-0.05;66.53
71384;BME280;67558;52.166;5.004;2023-03-01T06:36:47;103119.34;;;-0.08;66.36
71384;BME280;67558;52.166;5.004;2023-03-01T06:39:12;103130.28;;;-0.13;66.47
71384;BME280;67558;52.166;5.004;2023-03-01T06:41:38;103124.44;;;-0.16;66.71
71384;BME280;67558;52.166;5.004;2023-03-01T06:44:03;103127.50;;;-0.21;66.20
71384;BME280;67558;52.166;5.004;2023-03-01T06:46:29;103116.13;;;-0.22;67.05
71384;BME280;67558;52.166;5.004;2023-03-01T06:48:54;103125.41;;;-0.17;66.99
71384;BME280;67558;52.166;5.004;2023-03-01T06:51:19;103127.91;;;-0.16;66.91
71384;BME280;67558;52.166;5.004;2023-03-01T06:53:46;103129.72;;;-0.16;66.77
71384;BME280;67558;52.166;5.004;2023-03-01T06:56:11;103120.28;;;-0.19;66.82
71384;BME280;67558;52.166;5.004;2023-03-01T06:58:37;103114.75;;;-0.16;67.04
71384;BME280;67558;52.166;5.004;2023-03-01T07:01:09;103112.25;;;-0.17;66.76
71384;BME280;67558;52.166;5.004;2023-03-01T07:03:34;103104.22;;;-0.16;66.57
71384;BME280;67558;52.166;5.004;2023-03-01T07:06:00;103117.53;;;-0.08;67.35
71384;BME280;67558;52.166;5.004;2023-03-01T07:08:25;103118.63;;;-0.01;67.05
71384;BME280;67558;52.166;5.004;2023-03-01T07:11:00;103064.47;;;-0.32;66.83
71384;BME280;67558;52.166;5.004;2023-03-01T07:13:27;103112.56;;;0.09;66.92
71384;BME280;67558;52.166;5.004;2023-03-01T07:15:52;103131.94;;;0.17;66.84
71384;BME280;67558;52.166;5.004;2023-03-01T07:18:18;103129.03;;;0.20;66.73
71384;BME280;67558;52.166;5.004;2023-03-01T07:20:43;103118.88;;;0.26;66.57
71384;BME280;67558;52.166;5.004;2023-03-01T07:23:09;103121.97;;;0.31;66.74
71384;BME280;67558;52.166;5.004;2023-03-01T07:25:34;103120.72;;;0.35;67.02
71384;BME280;67558;52.166;5.004;2023-03-01T07:27:59;103129.69;;;0.42;67.28
71384;BME280;67558;52.166;5.004;2023-03-01T07:30:25;103131.34;;;0.53;67.36
71384;BME280;67558;52.166;5.004;2023-03-01T07:32:53;103133.13;;;0.62;67.65
71384;BME280;67558;52.166;5.004;2023-03-01T07:35:19;103132.97;;;0.73;66.95
71384;BME280;67558;52.166;5.004;2023-03-01T07:37:44;103137.94;;;0.86;67.10
71384;BME280;67558;52.166;5.004;2023-03-01T07:40:10;103127.34;;;0.96;67.21
71384;BME280;67558;52.166;5.004;2023-03-01T07:42:36;103132.97;;;1.11;67.52
71384;BME280;67558;52.166;5.004;2023-03-01T07:45:02;103130.69;;;1.26;67.99
71384;BME280;67558;52.166;5.004;2023-03-01T07:47:27;103130.50;;;1.37;67.23
71384;BME280;67558;52.166;5.004;2023-03-01T07:49:53;103132.34;;;1.54;67.50
71384;BME280;67558;52.166;5.004;2023-03-01T07:52:18;103124.88;;;1.68;67.28
71384;BME280;67558;52.166;5.004;2023-03-01T07:54:43;103129.78;;;1.80;67.41
71384;BME280;67558;52.166;5.004;2023-03-01T07:57:09;103117.75;;;1.96;67.20
71384;BME280;67558;52.166;5.004;2023-03-01T07:59:35;103132.97;;;2.20;67.20
71384;BME280;67558;52.166;5.004;2023-03-01T08:02:01;103126.03;;;2.37;66.92
71384;BME280;67558;52.166;5.004;2023-03-01T08:04:26;103133.56;;;2.58;67.02
71384;BME280;67558;52.166;5.004;2023-03-01T08:06:53;103112.81;;;2.63;66.93
71384;BME280;67558;52.166;5.004;2023-03-01T08:09:18;103137.28;;;2.91;66.44
71384;BME280;67558;52.166;5.004;2023-03-01T08:11:43;103135.69;;;3.06;66.67
71384;BME280;67558;52.166;5.004;2023-03-01T08:14:09;103133.13;;;3.31;66.30
71384;BME280;67558;52.166;5.004;2023-03-01T08:16:35;103120.63;;;3.49;66.33
71384;BME280;67558;52.166;5.004;2023-03-01T08:19:09;103130.97;;;3.85;65.89
71384;BME280;67558;52.166;5.004;2023-03-01T08:21:35;103134.81;;;4.07;65.54
71384;BME280;67558;52.166;5.004;2023-03-01T08:24:05;103105.69;;;4.16;65.49
71384;BME280;67558;52.166;5.004;2023-03-01T08:26:31;103127.84;;;4.47;64.50
71384;BME280;67558;52.166;5.004;2023-03-01T08:28:57;103119.19;;;4.62;64.09
71384;BME280;67558;52.166;5.004;2023-03-01T08:31:26;103117.34;;;4.79;63.89
71384;BME280;67558;52.166;5.004;2023-03-01T08:33:54;103117.31;;;4.95;63.10
71384;BME280;67558;52.166;5.004;2023-03-01T08:36:25;103122.88;;;5.08;62.65
71384;BME280;67558;52.166;5.004;2023-03-01T08:38:51;103119.72;;;5.13;61.55
71384;BME280;67558;52.166;5.004;2023-03-01T08:41:17;103114.38;;;5.21;60.93
71384;BME280;67558;52.166;5.004;2023-03-01T08:43:42;103116.00;;;5.30;59.89
71384;BME280;67558;52.166;5.004;2023-03-01T08:46:08;103103.25;;;5.26;59.09
71384;BME280;67558;52.166;5.004;2023-03-01T08:48:34;103111.34;;;5.32;59.33
71384;BME280;67558;52.166;5.004;2023-03-01T08:51:17;103113.66;;;5.36;57.77
71384;BME280;67558;52.166;5.004;2023-03-01T08:53:43;103100.50;;;5.42;57.45
71384;BME280;67558;52.166;5.004;2023-03-01T08:56:09;103108.94;;;5.46;57.57
71384;BME280;67558;52.166;5.004;2023-03-01T08:58:35;103104.13;;;5.49;56.71
71384;BME280;67558;52.166;5.004;2023-03-01T09:01:06;103100.38;;;5.36;56.30
71384;BME280;67558;52.166;5.004;2023-03-01T09:03:32;103102.88;;;5.29;57.00
71384;BME280;67558;52.166;5.004;2023-03-01T09:06:00;103100.06;;;5.30;56.99
71384;BME280;67558;52.166;5.004;2023-03-01T09:08:27;103091.13;;;5.31;55.93
71384;BME280;67558;52.166;5.004;2023-03-01T09:10:52;103087.81;;;5.29;56.87
71384;BME280;67558;52.166;5.004;2023-03-01T09:13:17;103081.19;;;5.25;56.66
71384;BME280;67558;52.166;5.004;2023-03-01T09:15:43;103074.84;;;5.34;56.76
71384;BME280;67558;52.166;5.004;2023-03-01T09:18:08;103076.63;;;5.42;56.86
71384;BME280;67558;52.166;5.004;2023-03-01T09:20:34;103067.13;;;5.48;56.53
71384;BME280;67558;52.166;5.004;2023-03-01T09:22:59;103067.59;;;5.51;56.16
71384;BME280;67558;52.166;5.004;2023-03-01T09:25:24;103063.47;;;5.49;55.92
71384;BME280;67558;52.166;5.004;2023-03-01T09:27:54;103063.16;;;5.44;54.55
71384;BME280;67558;52.166;5.004;2023-03-01T09:30:20;103063.06;;;5.29;54.58
71384;BME280;67558;52.166;5.004;2023-03-01T09:32:46;103056.28;;;5.26;54.65
71384;BME280;67558;52.166;5.004;2023-03-01T09:35:12;103044.22;;;5.24;54.71
71384;BME280;67558;52.166;5.004;2023-03-01T09:37:38;103060.91;;;5.32;54.56
71384;BME280;67558;52.166;5.004;2023-03-01T09:40:12;103054.94;;;5.30;54.08
71384;BME280;67558;52.166;5.004;2023-03-01T09:42:48;103052.28;;;5.30;53.72
71384;BME280;67558;52.166;5.004;2023-03-01T09:45:29;103059.19;;;5.40;53.84
71384;BME280;67558;52.166;5.004;2023-03-01T09:47:58;103058.03;;;5.42;53.98
71384;BME280;67558;52.166;5.004;2023-03-01T09:50:26;103059.19;;;5.40;53.69
71384;BME280;67558;52.166;5.004;2023-03-01T09:53:25;103064.69;;;5.38;53.48
71384;BME280;67558;52.166;5.004;2023-03-01T09:55:59;103060.75;;;5.34;52.88
71384;BME280;67558;52.166;5.004;2023-03-01T09:58:34;103062.56;;;5.33;52.34
71384;BME280;67558;52.166;5.004;2023-03-01T10:01:28;103054.78;;;5.32;51.50
71384;BME280;67558;52.166;5.004;2023-03-01T10:06:28;103065.53;;;5.39;52.32
71384;BME280;67558;52.166;5.004;2023-03-01T10:09:05;103003.84;;;5.05;51.46
71384;BME280;67558;52.166;5.004;2023-03-01T10:11:37;103050.41;;;5.39;51.12
71384;BME280;67558;52.166;5.004;2023-03-01T10:14:33;103055.03;;;5.45;50.98
71384;BME280;67558;52.166;5.004;2023-03-01T10:19:37;103051.19;;;5.48;49.98
71384;BME280;67558;52.166;5.004;2023-03-01T10:24:35;103038.88;;;5.55;50.07
71384;BME280;67558;52.166;5.004;2023-03-01T10:27:24;103034.22;;;5.57;49.81
71384;BME280;67558;52.166;5.004;2023-03-01T10:30:02;103029.06;;;5.56;49.31
71384;BME280;67558;52.166;5.004;2023-03-01T10:32:31;103030.38;;;5.60;49.12
71384;BME280;67558;52.166;5.004;2023-03-01T10:34:56;103004.88;;;5.50;49.48
71384;BME280;67558;52.166;5.004;2023-03-01T10:37:22;103016.91;;;5.61;49.36
71384;BME280;67558;52.166;5.004;2023-03-01T10:42:31;103021.94;;;5.79;49.02
71384;BME280;67558;52.166;5.004;2023-03-01T10:44:58;103019.91;;;5.81;48.52
71384;BME280;67558;52.166;5.004;2023-03-01T10:47:35;103033.19;;;5.81;48.81
71384;BME280;67558;52.166;5.004;2023-03-01T10:50:03;103021.88;;;5.87;48.49
71384;BME280;67558;52.166;5.004;2023-03-01T10:52:37;103012.50;;;5.91;48.76
71384;BME280;67558;52.166;5.004;2023-03-01T10:55:23;103007.34;;;5.98;48.89
71384;BME280;67558;52.166;5.004;2023-03-01T10:58:12;102998.38;;;5.99;47.35
71384;BME280;67558;52.166;5.004;2023-03-01T11:00:53;102989.66;;;6.05;47.81
71384;BME280;67558;52.166;5.004;2023-03-01T11:03:31;102985.66;;;6.09;47.16
71384;BME280;67558;52.166;5.004;2023-03-01T11:06:19;102984.63;;;6.10;48.12
71384;BME280;67558;52.166;5.004;2023-03-01T11:08:48;102966.41;;;6.07;47.20
71384;BME280;67558;52.166;5.004;2023-03-01T11:11:22;102966.09;;;6.02;45.92
71384;BME280;67558;52.166;5.004;2023-03-01T11:14:21;102959.97;;;6.17;46.99
71384;BME280;67558;52.166;5.004;2023-03-01T11:16:48;102955.97;;;6.21;47.20
71384;BME280;67558;52.166;5.004;2023-03-01T11:19:22;102968.06;;;6.23;47.71
71384;BME280;67558;52.166;5.004;2023-03-01T11:24:49;102952.19;;;6.30;46.63
71384;BME280;67558;52.166;5.004;2023-03-01T11:27:19;102955.50;;;6.32;45.75
71384;BME280;67558;52.166;5.004;2023-03-01T11:29:58;102936.53;;;6.20;45.66
71384;BME280;67558;52.166;5.004;2023-03-01T11:32:29;102954.19;;;6.43;45.90
71384;BME280;67558;52.166;5.004;2023-03-01T11:35:02;102949.44;;;6.38;45.34
71384;BME280;67558;52.166;5.004;2023-03-01T11:40:32;102942.66;;;6.50;45.66
71384;BME280;67558;52.166;5.004;2023-03-01T11:43:04;102939.81;;;6.52;44.91
71384;BME280;67558;52.166;5.004;2023-03-01T11:51:00;102929.75;;;6.69;46.61
71384;BME280;67558;52.166;5.004;2023-03-01T11:56:36;102931.72;;;6.60;45.38
71384;BME280;67558;52.166;5.004;2023-03-01T11:59:18;102926.28;;;6.68;44.88
71384;BME280;67558;52.166;5.004;2023-03-01T12:04:54;102925.38;;;6.76;43.80
71384;BME280;67558;52.166;5.004;2023-03-01T12:15:37;102921.81;;;6.90;43.80
71384;BME280;67558;52.166;5.004;2023-03-01T12:18:17;102906.25;;;6.87;43.67
71384;BME280;67558;52.166;5.004;2023-03-01T12:31:34;102897.06;;;7.11;44.18
71384;BME280;67558;52.166;5.004;2023-03-01T12:46:07;102883.31;;;7.29;42.95
71384;BME280;67558;52.166;5.004;2023-03-01T12:48:53;102889.88;;;7.33;42.18
71384;BME280;67558;52.166;5.004;2023-03-01T12:51:24;102892.69;;;7.25;41.77
71384;BME280;67558;52.166;5.004;2023-03-01T12:53:53;102871.44;;;7.32;42.53
71384;BME280;67558;52.166;5.004;2023-03-01T12:56:25;102882.13;;;7.38;41.63
71384;BME280;67558;52.166;5.004;2023-03-01T12:59:11;102883.44;;;7.49;41.56
71384;BME280;67558;52.166;5.004;2023-03-01T13:01:49;102881.75;;;7.42;41.63
71384;BME280;67558;52.166;5.004;2023-03-01T13:06:54;102864.41;;;7.52;41.61
71384;BME280;67558;52.166;5.004;2023-03-01T13:09:38;102865.41;;;7.45;40.95
71384;BME280;67558;52.166;5.004;2023-03-01T13:12:49;102871.13;;;7.48;41.61
71384;BME280;67558;52.166;5.004;2023-03-01T13:17:55;102858.91;;;7.54;41.88
71384;BME280;67558;52.166;5.004;2023-03-01T13:26:15;102835.44;;;7.71;41.84
71384;BME280;67558;52.166;5.004;2023-03-01T13:33:50;102819.22;;;7.66;40.89
71384;BME280;67558;52.166;5.004;2023-03-01T13:44:30;102801.69;;;7.85;40.05
71384;BME280;67558;52.166;5.004;2023-03-01T13:49:47;102797.22;;;7.85;37.64
71384;BME280;67558;52.166;5.004;2023-03-01T13:52:39;102787.19;;;7.94;38.70
71384;BME280;67558;52.166;5.004;2023-03-01T13:55:51;102789.84;;;7.94;38.55
71384;BME280;67558;52.166;5.004;2023-03-01T13:57:55;102785.97;;;7.96;38.53
71384;BME280;67558;52.166;5.004;2023-03-01T14:00:25;102781.03;;;7.93;39.14
71384;BME280;67558;52.166;5.004;2023-03-01T14:05:31;102777.19;;;8.03;38.62
71384;BME280;67558;52.166;5.004;2023-03-01T14:07:57;102762.38;;;8.00;39.40
71384;BME280;67558;52.166;5.004;2023-03-01T14:10:26;102767.34;;;8.03;39.52
71384;BME280;67558;52.166;5.004;2023-03-01T14:15:50;102766.09;;;8.06;38.92
71384;BME280;67558;52.166;5.004;2023-03-01T14:18:26;102758.72;;;8.08;38.45
71384;BME280;67558;52.166;5.004;2023-03-01T14:20:54;102756.88;;;8.08;38.05
71384;BME280;67558;52.166;5.004;2023-03-01T14:23:22;102743.97;;;8.05;37.47
71384;BME280;67558;52.166;5.004;2023-03-01T14:25:51;102740.28;;;8.06;37.78
71384;BME280;67558;52.166;5.004;2023-03-01T14:28:28;102729.19;;;7.96;37.03
71384;BME280;67558;52.166;5.004;2023-03-01T14:30:56;102736.59;;;8.07;37.14
71384;BME280;67558;52.166;5.004;2023-03-01T14:33:25;102719.38;;;8.03;36.36
71384;BME280;67558;52.166;5.004;2023-03-01T14:38:22;102714.03;;;8.03;35.25
71384;BME280;67558;52.166;5.004;2023-03-01T14:40:51;102721.41;;;8.08;36.07
71384;BME280;67558;52.166;5.004;2023-03-01T14:43:22;102714.03;;;8.10;36.62
71384;BME280;67558;52.166;5.004;2023-03-01T14:45:50;102716.28;;;8.13;36.96
71384;BME280;67558;52.166;5.004;2023-03-01T14:48:15;102718.97;;;8.13;36.80
71384;BME280;67558;52.166;5.004;2023-03-01T14:50:42;102726.38;;;8.17;36.93
71384;BME280;67558;52.166;5.004;2023-03-01T14:53:20;102722.66;;;8.12;36.95